sensor_id;sensor_type;location;lat;lon;timestamp;pressure;altitude;pressure_sealevel;temperature;humidity
42669;BME280;29384;42.028;21.388;2022-09-20T00:02:42;98653.50;;;11.44;94.06
42669;BME280;29384;42.028;21.388;2022-09-20T00:05:07;98645.03;;;11.37;94.78
42669;BME280;29384;42.028;21.388;2022-09-20T00:07:33;98657.09;;;11.11;91.09
42669;BME280;29384;42.028;21.388;2022-09-20T00:09:59;98655.44;;;11.05;91.46
42669;BME280;29384;42.028;21.388;2022-09-20T00:12:25;98660.94;;;11.04;93.15
42669;BME280;29384;42.028;21.388;2022-09-20T00:14:51;98660.63;;;11.22;93.75
42669;BME280;29384;42.028;21.388;2022-09-20T00:17:16;98676.81;;;11.19;95.48
42669;BME280;29384;42.028;21.388;2022-09-20T00:19:42;98680.66;;;11.11;96.17
42669;BME280;29384;42.028;21.388;2022-09-20T00:22:07;98679.69;;;11.17;95.23
42669;BME280;29384;42.028;21.388;2022-09-20T00:24:33;98674.19;;;11.19;94.71
42669;BME280;29384;42.028;21.388;2022-09-20T00:27:01;98687.75;;;11.16;95.27
42669;BME280;29384;42.028;21.388;2022-09-20T00:32:48;98689.38;;;11.17;94.56
42669;BME280;29384;42.028;21.388;2022-09-20T00:35:14;98697.25;;;11.22;94.49
42669;BME280;29384;42.028;21.388;2022-09-20T00:37:40;98697.31;;;11.27;94.82
42669;BME280;29384;42.028;21.388;2022-09-20T00:40:10;98694.69;;;11.27;94.57
42669;BME280;29384;42.028;21.388;2022-09-20T00:42:36;98694.63;;;11.22;94.83
42669;BME280;29384;42.028;21.388;2022-09-20T00:45:07;98695.44;;;10.79;92.08
42669;BME280;29384;42.028;21.388;2022-09-20T00:47:41;98689.47;;;10.61;94.11
42669;BME280;29384;42.028;21.388;2022-09-20T00:52:44;98688.09;;;10.59;94.35
42669;BME280;29384;42.028;21.388;2022-09-20T00:55:12;98684.09;;;10.73;94.78
42669;BME280;29384;42.028;21.388;2022-09-20T00:57:38;98681.44;;;10.68;95.62
42669;BME280;29384;42.028;21.388;2022-09-20T01:00:07;98680.03;;;10.60;96.31
42669;BME280;29384;42.028;21.388;2022-09-20T01:02:35;98683.34;;;10.56;97.17
42669;BME280;29384;42.028;21.388;2022-09-20T01:05:02;98702.41;;;10.34;95.95
42669;BME280;29384;42.028;21.388;2022-09-20T01:07:28;98700.19;;;10.26;97.90
42669;BME280;29384;42.028;21.388;2022-09-20T01:09:54;98686.41;;;10.31;97.65
42669;BME280;29384;42.028;21.388;2022-09-20T01:12:22;98699.69;;;10.12;98.07
42669;BME280;29384;42.028;21.388;2022-09-20T01:18:10;98684.25;;;10.11;98.94
42669;BME280;29384;42.028;21.388;2022-09-20T01:20:39;98689.41;;;10.22;97.92
42669;BME280;29384;42.028;21.388;2022-09-20T01:23:15;98679.03;;;10.27;98.06
42669;BME280;29384;42.028;21.388;2022-09-20T01:28:29;98665.19;;;10.27;97.34
42669;BME280;29384;42.028;21.388;2022-09-20T01:31:00;98663.03;;;9.90;98.73
42669;BME280;29384;42.028;21.388;2022-09-20T01:33:34;98667.22;;;9.91;99.91
42669;BME280;29384;42.028;21.388;2022-09-20T01:36:03;98668.50;;;9.89;98.68
42669;BME280;29384;42.028;21.388;2022-09-20T01:38:55;98669.22;;;10.18;98.67
42669;BME280;29384;42.028;21.388;2022-09-20T01:41:46;98677.69;;;10.25;100.00
42669;BME280;29384;42.028;21.388;2022-09-20T01:46:51;98688.81;;;9.70;100.00
42669;BME280;29384;42.028;21.388;2022-09-20T01:49:31;98682.38;;;9.61;100.00
42669;BME280;29384;42.028;21.388;2022-09-20T02:10:37;98683.38;;;9.88;100.00
42669;BME280;29384;42.028;21.388;2022-09-20T02:19:48;98671.34;;;9.87;100.00
42669;BME280;29384;42.028;21.388;2022-09-20T02:22:59;98663.19;;;9.84;100.00
42669;BME280;29384;42.028;21.388;2022-09-20T02:33:53;98649.16;;;10.06;100.00
42669;BME280;29384;42.028;21.388;2022-09-20T02:36:40;98647.28;;;10.19;100.00
42669;BME280;29384;42.028;21.388;2022-09-20T02:39:14;98653.28;;;10.19;100.00
42669;BME280;29384;42.028;21.388;2022-09-20T02:41:51;98661.19;;;10.24;100.00
42669;BME280;29384;42.028;21.388;2022-09-20T02:47:44;98666.22;;;10.43;100.00
42669;BME280;29384;42.028;21.388;2022-09-20T02:53:34;98666.56;;;10.51;100.00
42669;BME280;29384;42.028;21.388;2022-09-20T03:04:56;98705.66;;;10.41;100.00
42669;BME280;29384;42.028;21.388;2022-09-20T03:10:13;98702.50;;;10.39;100.00
42669;BME280;29384;42.028;21.388;2022-09-20T03:25:15;98681.66;;;10.27;100.00
42669;BME280;29384;42.028;21.388;2022-09-20T03:36:33;98699.66;;;10.63;100.00
42669;BME280;29384;42.028;21.388;2022-09-20T04:04:50;98696.06;;;10.47;100.00
42669;BME280;29384;42.028;21.388;2022-09-20T04:07:22;98694.28;;;10.52;100.00
42669;BME280;29384;42.028;21.388;2022-09-20T04:16:28;98720.75;;;10.56;100.00
42669;BME280;29384;42.028;21.388;2022-09-20T04:21:57;98719.28;;;10.43;100.00
42669;BME280;29384;42.028;21.388;2022-09-20T04:27:42;98714.44;;;10.35;100.00
42669;BME280;29384;42.028;21.388;2022-09-20T04:33:38;98731.00;;;10.41;100.00
42669;BME280;29384;42.028;21.388;2022-09-20T04:39:15;98734.06;;;10.55;100.00
42669;BME280;29384;42.028;21.388;2022-09-20T04:51:06;98733.44;;;10.47;100.00
42669;BME280;29384;42.028;21.388;2022-09-20T05:05:20;98748.81;;;10.61;100.00
42669;BME280;29384;42.028;21.388;2022-09-20T05:08:21;98741.94;;;10.93;100.00
42669;BME280;29384;42.028;21.388;2022-09-20T05:17:31;98744.34;;;12.20;100.00
42669;BME280;29384;42.028;21.388;2022-09-20T05:23:10;98746.81;;;13.27;100.00
42669;BME280;29384;42.028;21.388;2022-09-20T05:34:29;98771.91;;;15.03;80.32
42669;BME280;29384;42.028;21.388;2022-09-20T05:39:47;98764.00;;;15.68;76.40
42669;BME280;29384;42.028;21.388;2022-09-20T05:42:18;98772.09;;;15.82;74.30
42669;BME280;29384;42.028;21.388;2022-09-20T05:58:50;98772.84;;;16.85;67.82
42669;BME280;29384;42.028;21.388;2022-09-20T06:04:44;98786.19;;;16.99;65.17
42669;BME280;29384;42.028;21.388;2022-09-20T06:10:16;98792.13;;;17.33;64.57
42669;BME280;29384;42.028;21.388;2022-09-20T06:21:54;98778.47;;;17.26;61.92
42669;BME280;29384;42.028;21.388;2022-09-20T06:24:35;98779.06;;;17.42;62.02
42669;BME280;29384;42.028;21.388;2022-09-20T06:27:22;98767.47;;;17.81;59.54
42669;BME280;29384;42.028;21.388;2022-09-20T06:29:56;98769.84;;;17.82;60.19
42669;BME280;29384;42.028;21.388;2022-09-20T06:32:23;98782.41;;;18.09;57.56
42669;BME280;29384;42.028;21.388;2022-09-20T06:34:48;98778.28;;;18.36;54.61
42669;BME280;29384;42.028;21.388;2022-09-20T06:40:38;98789.31;;;18.57;51.87
42669;BME280;29384;42.028;21.388;2022-09-20T06:43:23;98786.16;;;18.41;53.46
42669;BME280;29384;42.028;21.388;2022-09-20T06:45:48;98785.97;;;18.65;53.05
42669;BME280;29384;42.028;21.388;2022-09-20T06:48:14;98775.16;;;18.48;55.72
42669;BME280;29384;42.028;21.388;2022-09-20T06:50:41;98782.59;;;18.32;53.06
42669;BME280;29384;42.028;21.388;2022-09-20T06:53:14;98776.69;;;18.02;53.60
42669;BME280;29384;42.028;21.388;2022-09-20T06:55:43;98781.78;;;17.80;55.40
42669;BME280;29384;42.028;21.388;2022-09-20T06:58:09;98788.81;;;17.65;53.46
42669;BME280;29384;42.028;21.388;2022-09-20T07:00:35;98783.97;;;17.54;54.34
42669;BME280;29384;42.028;21.388;2022-09-20T07:03:01;98781.84;;;17.32;55.21
42669;BME280;29384;42.028;21.388;2022-09-20T07:05:26;98785.31;;;17.27;55.66
42669;BME280;29384;42.028;21.388;2022-09-20T07:07:56;98786.78;;;17.38;56.66
42669;BME280;29384;42.028;21.388;2022-09-20T07:10:24;98779.59;;;17.20;55.36
42669;BME280;29384;42.028;21.388;2022-09-20T07:12:55;98780.38;;;17.20;53.67
42669;BME280;29384;42.028;21.388;2022-09-20T07:15:24;98786.97;;;16.99;53.17
42669;BME280;29384;42.028;21.388;2022-09-20T07:17:49;98794.94;;;16.94;54.18
42669;BME280;29384;42.028;21.388;2022-09-20T07:20:16;98792.63;;;16.87;53.59
42669;BME280;29384;42.028;21.388;2022-09-20T07:22:43;98798.66;;;16.93;53.35
42669;BME280;29384;42.028;21.388;2022-09-20T07:25:09;98793.44;;;16.88;53.84
42669;BME280;29384;42.028;21.388;2022-09-20T07:27:34;98802.34;;;16.92;53.15
42669;BME280;29384;42.028;21.388;2022-09-20T07:30:00;98801.72;;;16.76;54.40
42669;BME280;29384;42.028;21.388;2022-09-20T07:32:26;98799.34;;;16.75;54.43
42669;BME280;29384;42.028;21.388;2022-09-20T07:34:52;98796.84;;;16.59;54.59
42669;BME280;29384;42.028;21.388;2022-09-20T07:37:17;98787.34;;;16.87;54.58
42669;BME280;29384;42.028;21.388;2022-09-20T07:39:44;98795.91;;;17.27;53.31
42669;BME280;29384;42.028;21.388;2022-09-20T07:42:10;98799.44;;;17.41;53.54
42669;BME280;29384;42.028;21.388;2022-09-20T07:44:36;98797.00;;;17.45;54.69
42669;BME280;29384;42.028;21.388;2022-09-20T07:47:08;98794.75;;;17.57;54.50
42669;BME280;29384;42.028;21.388;2022-09-20T07:49:38;98804.88;;;17.50;50.28
42669;BME280;29384;42.028;21.388;2022-09-20T07:52:03;98793.75;;;17.72;51.50
42669;BME280;29384;42.028;21.388;2022-09-20T07:54:29;98801.78;;;18.05;50.75
42669;BME280;29384;42.028;21.388;2022-09-20T07:56:54;98791.59;;;18.31;48.23
42669;BME280;29384;42.028;21.388;2022-09-20T07:59:20;98792.19;;;18.28;49.95
42669;BME280;29384;42.028;21.388;2022-09-20T08:05:07;98788.41;;;18.15;49.66
42669;BME280;29384;42.028;21.388;2022-09-20T08:07:33;98787.31;;;18.35;48.33
42669;BME280;29384;42.028;21.388;2022-09-20T08:09:58;98778.47;;;18.39;48.40
42669;BME280;29384;42.028;21.388;2022-09-20T08:12:24;98778.63;;;18.62;49.27
42669;BME280;29384;42.028;21.388;2022-09-20T08:14:50;98782.41;;;18.75;49.59
42669;BME280;29384;42.028;21.388;2022-09-20T08:17:16;98772.53;;;18.94;50.56
42669;BME280;29384;42.028;21.388;2022-09-20T08:19:42;98778.59;;;18.81;48.16
42669;BME280;29384;42.028;21.388;2022-09-20T08:22:08;98779.72;;;18.61;50.29
42669;BME280;29384;42.028;21.388;2022-09-20T08:24:36;98783.41;;;18.46;47.15
42669;BME280;29384;42.028;21.388;2022-09-20T08:27:01;98773.13;;;18.91;50.98
42669;BME280;29384;42.028;21.388;2022-09-20T08:29:27;98784.44;;;18.64;47.28
42669;BME280;29384;42.028;21.388;2022-09-20T08:35:14;98768.00;;;18.81;48.84
42669;BME280;29384;42.028;21.388;2022-09-20T08:37:40;98768.31;;;18.60;51.94
42669;BME280;29384;42.028;21.388;2022-09-20T08:40:11;98771.97;;;18.64;49.10
42669;BME280;29384;42.028;21.388;2022-09-20T08:42:37;98760.47;;;18.23;47.65
42669;BME280;29384;42.028;21.388;2022-09-20T08:45:14;98762.72;;;18.15;47.67
42669;BME280;29384;42.028;21.388;2022-09-20T08:50:21;98755.94;;;18.42;48.95
42669;BME280;29384;42.028;21.388;2022-09-20T08:52:48;98742.19;;;18.40;50.10
42669;BME280;29384;42.028;21.388;2022-09-20T08:55:23;98751.47;;;18.56;49.45
42669;BME280;29384;42.028;21.388;2022-09-20T08:57:53;98752.69;;;18.78;47.65
42669;BME280;29384;42.028;21.388;2022-09-20T09:00:30;98752.09;;;19.08;46.97
42669;BME280;29384;42.028;21.388;2022-09-20T09:03:03;98744.63;;;19.24;48.90
42669;BME280;29384;42.028;21.388;2022-09-20T09:05:44;98744.72;;;19.33;48.56
42669;BME280;29384;42.028;21.388;2022-09-20T09:08:13;98749.53;;;19.31;47.35
42669;BME280;29384;42.028;21.388;2022-09-20T09:11:02;98748.56;;;18.99;46.17
42669;BME280;29384;42.028;21.388;2022-09-20T09:13:38;98747.19;;;18.88;47.27
42669;BME280;29384;42.028;21.388;2022-09-20T09:16:15;98745.03;;;18.76;47.02
42669;BME280;29384;42.028;21.388;2022-09-20T09:18:43;98739.81;;;18.71;47.61
42669;BME280;29384;42.028;21.388;2022-09-20T09:21:23;98743.25;;;18.72;47.38
42669;BME280;29384;42.028;21.388;2022-09-20T09:23:55;98736.03;;;18.58;45.75
42669;BME280;29384;42.028;21.388;2022-09-20T09:26:26;98721.25;;;18.57;46.91
42669;BME280;29384;42.028;21.388;2022-09-20T09:29:28;98725.56;;;18.67;47.77
42669;BME280;29384;42.028;21.388;2022-09-20T09:31:55;98725.09;;;18.79;46.36
42669;BME280;29384;42.028;21.388;2022-09-20T09:34:31;98717.94;;;18.79;47.22
42669;BME280;29384;42.028;21.388;2022-09-20T09:37:03;98721.28;;;18.85;47.44
42669;BME280;29384;42.028;21.388;2022-09-20T09:39:35;98726.59;;;18.85;47.95
42669;BME280;29384;42.028;21.388;2022-09-20T09:42:24;98725.03;;;18.98;45.78
42669;BME280;29384;42.028;21.388;2022-09-20T09:45:09;98716.84;;;19.08;47.92
42669;BME280;29384;42.028;21.388;2022-09-20T09:47:54;98714.31;;;19.03;47.06
42669;BME280;29384;42.028;21.388;2022-09-20T09:50:23;98713.22;;;19.04;46.44
42669;BME280;29384;42.028;21.388;2022-09-20T09:52:59;98705.78;;;18.92;46.78
42669;BME280;29384;42.028;21.388;2022-09-20T09:56:19;98705.97;;;18.82;47.94
42669;BME280;29384;42.028;21.388;2022-09-20T10:10:38;98705.78;;;18.78;46.44
42669;BME280;29384;42.028;21.388;2022-09-20T10:21:07;98688.75;;;18.38;43.03
42669;BME280;29384;42.028;21.388;2022-09-20T10:32:31;98683.41;;;17.78;46.71
42669;BME280;29384;42.028;21.388;2022-09-20T10:35:10;98676.91;;;17.51;46.29
42669;BME280;29384;42.028;21.388;2022-09-20T10:38:10;98679.91;;;17.44;46.52
42669;BME280;29384;42.028;21.388;2022-09-20T10:40:49;98678.59;;;17.42;45.89
42669;BME280;29384;42.028;21.388;2022-09-20T10:52:54;98663.16;;;17.87;46.38
42669;BME280;29384;42.028;21.388;2022-09-20T10:55:43;98665.38;;;17.80;45.17
42669;BME280;29384;42.028;21.388;2022-09-20T10:58:21;98667.31;;;17.74;46.77
42669;BME280;29384;42.028;21.388;2022-09-20T11:10:04;98636.69;;;17.87;43.26
42669;BME280;29384;42.028;21.388;2022-09-20T11:12:45;98646.72;;;17.90;42.53
42669;BME280;29384;42.028;21.388;2022-09-20T11:15:34;98644.34;;;17.69;44.34
42669;BME280;29384;42.028;21.388;2022-09-20T11:21:55;98629.88;;;17.48;43.80
42669;BME280;29384;42.028;21.388;2022-09-20T11:24:37;98630.03;;;17.57;45.27
42669;BME280;29384;42.028;21.388;2022-09-20T11:27:14;98624.94;;;17.60;45.45
42669;BME280;29384;42.028;21.388;2022-09-20T11:32:33;98623.91;;;17.75;45.82
42669;BME280;29384;42.028;21.388;2022-09-20T11:37:38;98611.59;;;18.31;44.03
42669;BME280;29384;42.028;21.388;2022-09-20T11:40:36;98612.06;;;18.33;42.38
42669;BME280;29384;42.028;21.388;2022-09-20T11:43:01;98614.63;;;18.79;41.00
42669;BME280;29384;42.028;21.388;2022-09-20T11:45:28;98609.94;;;18.76;42.32
42669;BME280;29384;42.028;21.388;2022-09-20T11:48:04;98604.13;;;18.88;41.67
42669;BME280;29384;42.028;21.388;2022-09-20T11:53:50;98594.50;;;19.15;40.74
42669;BME280;29384;42.028;21.388;2022-09-20T11:56:22;98597.38;;;19.04;43.33
42669;BME280;29384;42.028;21.388;2022-09-20T11:58:58;98584.84;;;18.96;43.44
42669;BME280;29384;42.028;21.388;2022-09-20T12:04:46;98587.16;;;19.11;41.71
42669;BME280;29384;42.028;21.388;2022-09-20T12:07:21;98576.53;;;19.48;40.56
42669;BME280;29384;42.028;21.388;2022-09-20T12:10:02;98579.03;;;19.53;40.00
42669;BME280;29384;42.028;21.388;2022-09-20T12:12:40;98582.91;;;19.69;41.54
42669;BME280;29384;42.028;21.388;2022-09-20T12:21:12;98578.25;;;19.75;39.20
42669;BME280;29384;42.028;21.388;2022-09-20T12:28:54;98574.41;;;19.36;39.48
42669;BME280;29384;42.028;21.388;2022-09-20T12:36:43;98558.84;;;18.98;41.52
42669;BME280;29384;42.028;21.388;2022-09-20T12:57:57;98551.91;;;18.89;41.92
42669;BME280;29384;42.028;21.388;2022-09-20T13:03:22;98547.53;;;19.06;42.07
42669;BME280;29384;42.028;21.388;2022-09-20T13:11:16;98543.97;;;19.11;41.46
42669;BME280;29384;42.028;21.388;2022-09-20T13:14:09;98534.78;;;19.08;40.29
42669;BME280;29384;42.028;21.388;2022-09-20T13:19:58;98528.78;;;18.67;40.57
42669;BME280;29384;42.028;21.388;2022-09-20T13:22:33;98527.13;;;18.57;42.42
42669;BME280;29384;42.028;21.388;2022-09-20T13:25:03;98529.22;;;18.46;42.08
42669;BME280;29384;42.028;21.388;2022-09-20T13:27:33;98526.06;;;18.44;42.71
42669;BME280;29384;42.028;21.388;2022-09-20T13:30:16;98521.75;;;18.48;43.57
42669;BME280;29384;42.028;21.388;2022-09-20T13:36:03;98505.94;;;18.57;43.97
42669;BME280;29384;42.028;21.388;2022-09-20T13:38:30;98511.44;;;18.60;42.28
42669;BME280;29384;42.028;21.388;2022-09-20T13:41:05;98509.75;;;18.64;43.72
42669;BME280;29384;42.028;21.388;2022-09-20T13:43:40;98510.84;;;18.63;42.07
42669;BME280;29384;42.028;21.388;2022-09-20T13:52:12;98500.88;;;18.47;42.03
42669;BME280;29384;42.028;21.388;2022-09-20T13:54:38;98495.47;;;18.52;41.83
42669;BME280;29384;42.028;21.388;2022-09-20T13:57:12;98502.47;;;18.70;40.88
42669;BME280;29384;42.028;21.388;2022-09-20T13:59:43;98496.81;;;18.77;40.32
42669;BME280;29384;42.028;21.388;2022-09-20T14:02:23;98494.03;;;18.68;41.19
42669;BME280;29384;42.028;21.388;2022-09-20T14:04:52;98490.13;;;18.66;41.25
42669;BME280;29384;42.028;21.388;2022-09-20T14:07:18;98500.72;;;18.66;41.64
42669;BME280;29384;42.028;21.388;2022-09-20T14:09:44;98500.63;;;18.71;40.71
42669;BME280;29384;42.028;21.388;2022-09-20T14:12:11;98497.16;;;18.84;40.69
42669;BME280;29384;42.028;21.388;2022-09-20T14:14:39;98490.66;;;18.90;40.73
42669;BME280;29384;42.028;21.388;2022-09-20T14:17:06;98500.22;;;18.77;40.82
42669;BME280;29384;42.028;21.388;2022-09-20T14:19:40;98495.16;;;18.53;41.03
42669;BME280;29384;42.028;21.388;2022-09-20T14:22:07;98494.72;;;18.37;41.33
42669;BME280;29384;42.028;21.388;2022-09-20T14:24:38;98495.91;;;18.31;41.50
42669;BME280;29384;42.028;21.388;2022-09-20T14:27:20;98492.19;;;18.19;41.64
42669;BME280;29384;42.028;21.388;2022-09-20T14:29:50;98497.38;;;18.10;42.00
42669;BME280;29384;42.028;21.388;2022-09-20T14:34:43;98492.75;;;18.15;40.99
42669;BME280;29384;42.028;21.388;2022-09-20T14:40:00;98490.31;;;18.05;41.77
42669;BME280;29384;42.028;21.388;2022-09-20T14:42:35;98496.13;;;18.07;40.53
42669;BME280;29384;42.028;21.388;2022-09-20T14:45:04;98491.09;;;18.20;41.21
42669;BME280;29384;42.028;21.388;2022-09-20T14:48:00;98481.78;;;18.22;40.83
42669;BME280;29384;42.028;21.388;2022-09-20T14:50:33;98478.66;;;18.20;41.39
42669;BME280;29384;42.028;21.388;2022-09-20T14:53:18;98474.75;;;18.18;41.22
42669;BME280;29384;42.028;21.388;2022-09-20T14:58:29;98476.09;;;18.15;40.78
42669;BME280;29384;42.028;21.388;2022-09-20T15:01:01;98475.31;;;18.14;41.35
42669;BME280;29384;42.028;21.388;2022-09-20T15:03:37;98477.47;;;18.12;41.51
42669;BME280;29384;42.028;21.388;2022-09-20T15:06:03;98471.72;;;18.10;42.47
42669;BME280;29384;42.028;21.388;2022-09-20T15:08:29;98470.16;;;18.09;42.85
42669;BME280;29384;42.028;21.388;2022-09-20T15:10:54;98467.00;;;18.07;41.11
42669;BME280;29384;42.028;21.388;2022-09-20T15:13:20;98470.53;;;18.03;40.88
42669;BME280;29384;42.028;21.388;2022-09-20T15:15:50;98472.28;;;18.07;41.45
42669;BME280;29384;42.028;21.388;2022-09-20T15:18:19;98460.25;;;18.01;42.07
42669;BME280;29384;42.028;21.388;2022-09-20T15:20:47;98449.47;;;17.98;43.52
42669;BME280;29384;42.028;21.388;2022-09-20T15:23:13;98458.56;;;18.05;43.10
42669;BME280;29384;42.028;21.388;2022-09-20T15:25:38;98460.03;;;18.11;42.78
42669;BME280;29384;42.028;21.388;2022-09-20T15:28:04;98462.31;;;18.04;42.68
42669;BME280;29384;42.028;21.388;2022-09-20T15:30:31;98457.91;;;18.00;42.61
42669;BME280;29384;42.028;21.388;2022-09-20T15:32:57;98456.63;;;17.97;43.58
42669;BME280;29384;42.028;21.388;2022-09-20T15:35:22;98455.34;;;17.95;43.37
42669;BME280;29384;42.028;21.388;2022-09-20T15:37:48;98452.41;;;17.96;43.48
42669;BME280;29384;42.028;21.388;2022-09-20T15:40:13;98453.00;;;17.93;43.54
42669;BME280;29384;42.028;21.388;2022-09-20T15:42:39;98458.59;;;17.91;43.37
42669;BME280;29384;42.028;21.388;2022-09-20T15:45:10;98460.03;;;17.84;44.48
42669;BME280;29384;42.028;21.388;2022-09-20T15:47:36;98450.16;;;17.76;44.52
42669;BME280;29384;42.028;21.388;2022-09-20T15:50:06;98457.09;;;17.72;44.58
42669;BME280;29384;42.028;21.388;2022-09-20T15:52:34;98457.47;;;17.65;45.50
42669;BME280;29384;42.028;21.388;2022-09-20T15:55:01;98458.44;;;17.55;45.71
42669;BME280;29384;42.028;21.388;2022-09-20T15:57:29;98463.31;;;17.48;45.49
42669;BME280;29384;42.028;21.388;2022-09-20T15:59:54;98458.41;;;17.41;46.12
42669;BME280;29384;42.028;21.388;2022-09-20T16:02:19;98466.84;;;17.43;45.45
42669;BME280;29384;42.028;21.388;2022-09-20T16:08:06;98448.91;;;17.27;45.08
42669;BME280;29384;42.028;21.388;2022-09-20T16:10:32;98466.13;;;17.24;45.38
42669;BME280;29384;42.028;21.388;2022-09-20T16:12:57;98464.16;;;17.16;46.12
42669;BME280;29384;42.028;21.388;2022-09-20T16:15:23;98457.78;;;17.03;46.80
42669;BME280;29384;42.028;21.388;2022-09-20T16:17:48;98464.56;;;16.90;47.52
42669;BME280;29384;42.028;21.388;2022-09-20T16:20:40;98462.38;;;16.79;47.88
42669;BME280;29384;42.028;21.388;2022-09-20T16:23:05;98465.84;;;16.74;48.35
42669;BME280;29384;42.028;21.388;2022-09-20T16:25:31;98461.50;;;16.64;49.24
42669;BME280;29384;42.028;21.388;2022-09-20T16:27:56;98468.53;;;16.50;50.38
42669;BME280;29384;42.028;21.388;2022-09-20T16:30:22;98463.69;;;16.38;50.07
42669;BME280;29384;42.028;21.388;2022-09-20T16:32:48;98474.53;;;16.37;49.45
42669;BME280;29384;42.028;21.388;2022-09-20T16:35:13;98474.25;;;16.38;48.93
42669;BME280;29384;42.028;21.388;2022-09-20T16:37:40;98469.53;;;16.35;49.35
42669;BME280;29384;42.028;21.388;2022-09-20T16:40:06;98468.09;;;16.24;50.06
42669;BME280;29384;42.028;21.388;2022-09-20T16:42:34;98475.78;;;16.20;50.19
42669;BME280;29384;42.028;21.388;2022-09-20T16:45:02;98482.25;;;16.09;50.09
42669;BME280;29384;42.028;21.388;2022-09-20T16:47:27;98486.03;;;16.03;50.64
42669;BME280;29384;42.028;21.388;2022-09-20T16:53:15;98492.41;;;15.97;50.36
42669;BME280;29384;42.028;21.388;2022-09-20T16:55:43;98499.31;;;15.93;50.32
42669;BME280;29384;42.028;21.388;2022-09-20T16:58:08;98502.28;;;15.86;50.22
42669;BME280;29384;42.028;21.388;2022-09-20T17:00:34;98503.13;;;15.82;50.45
42669;BME280;29384;42.028;21.388;2022-09-20T17:02:59;98502.41;;;15.76;50.75
42669;BME280;29384;42.028;21.388;2022-09-20T17:05:25;98505.59;;;15.73;51.33
42669;BME280;29384;42.028;21.388;2022-09-20T17:07:50;98501.97;;;15.64;52.04
42669;BME280;29384;42.028;21.388;2022-09-20T17:10:16;98505.53;;;15.49;52.90
42669;BME280;29384;42.028;21.388;2022-09-20T17:12:41;98511.97;;;15.38;53.77
42669;BME280;29384;42.028;21.388;2022-09-20T17:15:09;98512.59;;;15.24;55.39
42669;BME280;29384;42.028;21.388;2022-09-20T17:17:37;98517.41;;;15.17;55.07
42669;BME280;29384;42.028;21.388;2022-09-20T17:23:24;98516.81;;;14.91;57.70
42669;BME280;29384;42.028;21.388;2022-09-20T17:26:00;98513.94;;;14.82;57.61
42669;BME280;29384;42.028;21.388;2022-09-20T17:28:26;98508.97;;;14.76;56.93
42669;BME280;29384;42.028;21.388;2022-09-20T17:30:51;98516.63;;;14.72;57.61
42669;BME280;29384;42.028;21.388;2022-09-20T17:33:17;98520.28;;;14.76;57.12
42669;BME280;29384;42.028;21.388;2022-09-20T17:35:50;98522.38;;;14.79;56.75
42669;BME280;29384;42.028;21.388;2022-09-20T17:38:15;98525.00;;;14.79;56.45
42669;BME280;29384;42.028;21.388;2022-09-20T17:40:41;98531.34;;;14.73;57.33
42669;BME280;29384;42.028;21.388;2022-09-20T17:43:06;98535.59;;;14.69;57.75
42669;BME280;29384;42.028;21.388;2022-09-20T17:45:32;98542.47;;;14.70;56.84
42669;BME280;29384;42.028;21.388;2022-09-20T17:47:57;98543.00;;;14.67;57.23
42669;BME280;29384;42.028;21.388;2022-09-20T17:53:45;98539.34;;;14.58;58.76
42669;BME280;29384;42.028;21.388;2022-09-20T17:56:12;98546.91;;;14.70;58.96
42669;BME280;29384;42.028;21.388;2022-09-20T17:58:39;98547.97;;;14.74;58.07
42669;BME280;29384;42.028;21.388;2022-09-20T18:01:23;98556.41;;;14.71;59.10
42669;BME280;29384;42.028;21.388;2022-09-20T18:03:50;98549.28;;;14.66;60.01
42669;BME280;29384;42.028;21.388;2022-09-20T18:06:20;98558.28;;;14.60;60.66
42669;BME280;29384;42.028;21.388;2022-09-20T18:08:51;98555.16;;;14.48;60.56
42669;BME280;29384;42.028;21.388;2022-09-20T18:11:22;98556.00;;;14.33;62.36
42669;BME280;29384;42.028;21.388;2022-09-20T18:13:50;98560.22;;;14.24;62.82
42669;BME280;29384;42.028;21.388;2022-09-20T18:16:16;98567.59;;;14.27;63.44
42669;BME280;29384;42.028;21.388;2022-09-20T18:18:43;98563.66;;;14.19;62.72
42669;BME280;29384;42.028;21.388;2022-09-20T18:21:14;98568.19;;;14.03;63.10
42669;BME280;29384;42.028;21.388;2022-09-20T18:23:41;98576.06;;;13.98;61.58
42669;BME280;29384;42.028;21.388;2022-09-20T18:26:08;98569.22;;;14.07;61.21
42669;BME280;29384;42.028;21.388;2022-09-20T18:31:18;98582.09;;;14.24;60.27
42669;BME280;29384;42.028;21.388;2022-09-20T18:33:44;98580.75;;;14.27;60.97
42669;BME280;29384;42.028;21.388;2022-09-20T18:36:09;98579.19;;;14.21;60.71
42669;BME280;29384;42.028;21.388;2022-09-20T18:38:35;98584.97;;;14.28;60.99
42669;BME280;29384;42.028;21.388;2022-09-20T18:41:02;98584.97;;;14.23;60.95
42669;BME280;29384;42.028;21.388;2022-09-20T18:43:30;98590.47;;;14.26;60.98
42669;BME280;29384;42.028;21.388;2022-09-20T18:45:57;98592.28;;;14.31;60.39
42669;BME280;29384;42.028;21.388;2022-09-20T18:48:24;98590.97;;;14.33;60.53
42669;BME280;29384;42.028;21.388;2022-09-20T18:51:00;98598.09;;;14.38;59.77
42669;BME280;29384;42.028;21.388;2022-09-20T18:53:35;98595.97;;;14.40;60.42
42669;BME280;29384;42.028;21.388;2022-09-20T18:56:06;98596.75;;;14.46;61.19
42669;BME280;29384;42.028;21.388;2022-09-20T18:58:32;98601.72;;;14.47;62.54
42669;BME280;29384;42.028;21.388;2022-09-20T19:01:10;98597.28;;;14.38;62.26
42669;BME280;29384;42.028;21.388;2022-09-20T19:03:53;98593.09;;;14.31;62.43
42669;BME280;29384;42.028;21.388;2022-09-20T19:06:24;98603.88;;;14.35;63.09
42669;BME280;29384;42.028;21.388;2022-09-20T19:09:03;98603.34;;;14.38;62.19
42669;BME280;29384;42.028;21.388;2022-09-20T19:11:42;98598.06;;;14.43;62.90